sensor_id;sensor_type;location;lat;lon;timestamp;temperature;humidity
27026;DHT22;14565;48.626;8.978;2024-01-30T00:00:34;3.70;99.90
27026;DHT22;14565;48.626;8.978;2024-01-30T00:02:59;3.60;99.90
27026;DHT22;14565;48.626;8.978;2024-01-30T00:05:25;3.40;99.90
27026;DHT22;14565;48.626;8.978;2024-01-30T00:07:50;3.50;99.90
27026;DHT22;14565;48.626;8.978;2024-01-30T00:10:16;3.40;99.90
27026;DHT22;14565;48.626;8.978;2024-01-30T00:12:41;3.40;99.90
27026;DHT22;14565;48.626;8.978;2024-01-30T00:15:07;3.40;99.90
27026;DHT22;14565;48.626;8.978;2024-01-30T00:17:35;3.60;99.90
27026;DHT22;14565;48.626;8.978;2024-01-30T00:20:01;3.80;99.90
27026;DHT22;14565;48.626;8.978;2024-01-30T00:22:30;4.00;99.90
27026;DHT22;14565;48.626;8.978;2024-01-30T00:24:56;4.10;99.90
27026;DHT22;14565;48.626;8.978;2024-01-30T00:27:21;4.20;99.90
27026;DHT22;14565;48.626;8.978;2024-01-30T00:29:47;4.30;99.90
27026;DHT22;14565;48.626;8.978;2024-01-30T00:32:12;4.30;99.90
27026;DHT22;14565;48.626;8.978;2024-01-30T00:34:38;4.20;99.90
27026;DHT22;14565;48.626;8.978;2024-01-30T00:37:03;4.30;99.90
27026;DHT22;14565;48.626;8.978;2024-01-30T00:39:29;4.30;99.90
27026;DHT22;14565;48.626;8.978;2024-01-30T00:41:55;4.40;99.90
27026;DHT22;14565;48.626;8.978;2024-01-30T00:44:20;4.40;99.90
27026;DHT22;14565;48.626;8.978;2024-01-30T00:46:46;4.50;99.90
27026;DHT22;14565;48.626;8.978;2024-01-30T00:49:11;4.50;99.90
27026;DHT22;14565;48.626;8.978;2024-01-30T00:51:37;4.50;99.90
27026;DHT22;14565;48.626;8.978;2024-01-30T00:54:02;4.50;99.90
27026;DHT22;14565;48.626;8.978;2024-01-30T00:56:28;4.50;99.90
27026;DHT22;14565;48.626;8.978;2024-01-30T00:58:53;4.50;99.90
27026;DHT22;14565;48.626;8.978;2024-01-30T01:01:19;4.50;99.90
27026;DHT22;14565;48.626;8.978;2024-01-30T01:03:44;4.40;99.90
27026;DHT22;14565;48.626;8.978;2024-01-30T01:06:10;4.40;99.90
27026;DHT22;14565;48.626;8.978;2024-01-30T01:08:36;4.40;99.90
27026;DHT22;14565;48.626;8.978;2024-01-30T01:11:01;4.50;99.90
27026;DHT22;14565;48.626;8.978;2024-01-30T01:13:28;4.40;99.90
27026;DHT22;14565;48.626;8.978;2024-01-30T01:15:54;4.40;99.90
27026;DHT22;14565;48.626;8.978;2024-01-30T01:18:20;4.30;99.90
27026;DHT22;14565;48.626;8.978;2024-01-30T01:20:45;4.30;99.90
27026;DHT22;14565;48.626;8.978;2024-01-30T01:23:11;4.20;99.90
27026;DHT22;14565;48.626;8.978;2024-01-30T01:25:36;4.00;99.90
27026;DHT22;14565;48.626;8.978;2024-01-30T01:28:02;3.90;99.90
27026;DHT22;14565;48.626;8.978;2024-01-30T01:30:28;3.80;99.90
27026;DHT22;14565;48.626;8.978;2024-01-30T01:32:54;3.80;99.90
27026;DHT22;14565;48.626;8.978;2024-01-30T01:35:26;3.80;99.90
27026;DHT22;14565;48.626;8.978;2024-01-30T01:37:52;4.00;99.90
27026;DHT22;14565;48.626;8.978;2024-01-30T01:40:26;4.00;99.90
27026;DHT22;14565;48.626;8.978;2024-01-30T01:42:52;4.00;99.90
27026;DHT22;14565;48.626;8.978;2024-01-30T01:45:18;4.00;99.90
27026;DHT22;14565;48.626;8.978;2024-01-30T01:47:44;4.10;99.90
27026;DHT22;14565;48.626;8.978;2024-01-30T01:50:15;4.10;99.90
27026;DHT22;14565;48.626;8.978;2024-01-30T01:52:44;4.10;99.90
27026;DHT22;14565;48.626;8.978;2024-01-30T01:55:10;4.20;99.90
27026;DHT22;14565;48.626;8.978;2024-01-30T01:57:36;4.10;99.90
27026;DHT22;14565;48.626;8.978;2024-01-30T02:00:02;4.10;99.90
27026;DHT22;14565;48.626;8.978;2024-01-30T02:02:30;4.10;99.90
27026;DHT22;14565;48.626;8.978;2024-01-30T02:04:56;4.10;99.90
27026;DHT22;14565;48.626;8.978;2024-01-30T02:07:22;4.10;99.90
27026;DHT22;14565;48.626;8.978;2024-01-30T02:09:47;4.10;99.90
27026;DHT22;14565;48.626;8.978;2024-01-30T02:12:13;4.10;99.90
27026;DHT22;14565;48.626;8.978;2024-01-30T02:14:45;4.10;99.90
27026;DHT22;14565;48.626;8.978;2024-01-30T02:17:12;4.10;99.90
27026;DHT22;14565;48.626;8.978;2024-01-30T02:19:37;4.10;99.90
27026;DHT22;14565;48.626;8.978;2024-01-30T02:22:03;4.10;99.90
27026;DHT22;14565;48.626;8.978;2024-01-30T02:24:29;4.10;99.90
27026;DHT22;14565;48.626;8.978;2024-01-30T02:26:54;4.00;99.90
27026;DHT22;14565;48.626;8.978;2024-01-30T02:29:20;3.90;99.90
27026;DHT22;14565;48.626;8.978;2024-01-30T02:31:46;3.90;99.90
27026;DHT22;14565;48.626;8.978;2024-01-30T02:34:11;3.90;99.90
27026;DHT22;14565;48.626;8.978;2024-01-30T02:36:37;3.90;99.90
27026;DHT22;14565;48.626;8.978;2024-01-30T02:39:03;3.80;99.90
27026;DHT22;14565;48.626;8.978;2024-01-30T02:41:28;3.80;99.90
27026;DHT22;14565;48.626;8.978;2024-01-30T02:43:54;3.70;99.90
27026;DHT22;14565;48.626;8.978;2024-01-30T02:46:19;3.50;99.90
27026;DHT22;14565;48.626;8.978;2024-01-30T02:48:45;3.50;99.90
27026;DHT22;14565;48.626;8.978;2024-01-30T02:51:10;3.50;99.90
27026;DHT22;14565;48.626;8.978;2024-01-30T02:53:36;3.50;99.90
27026;DHT22;14565;48.626;8.978;2024-01-30T02:56:02;3.40;99.90
27026;DHT22;14565;48.626;8.978;2024-01-30T02:58:27;3.40;99.90
27026;DHT22;14565;48.626;8.978;2024-01-30T03:00:53;3.50;99.90
27026;DHT22;14565;48.626;8.978;2024-01-30T03:03:18;3.40;99.90
27026;DHT22;14565;48.626;8.978;2024-01-30T03:05:44;3.50;99.90
27026;DHT22;14565;48.626;8.978;2024-01-30T03:08:09;3.40;99.90
27026;DHT22;14565;48.626;8.978;2024-01-30T03:10:35;3.30;99.90
27026;DHT22;14565;48.626;8.978;2024-01-30T03:13:00;3.30;99.90
27026;DHT22;14565;48.626;8.978;2024-01-30T03:15:26;3.30;99.90
27026;DHT22;14565;48.626;8.978;2024-01-30T03:17:53;3.30;99.90
27026;DHT22;14565;48.626;8.978;2024-01-30T03:20:18;3.30;99.90
27026;DHT22;14565;48.626;8.978;2024-01-30T03:22:44;3.20;99.90
27026;DHT22;14565;48.626;8.978;2024-01-30T03:25:09;3.20;99.90
27026;DHT22;14565;48.626;8.978;2024-01-30T03:27:35;3.20;99.90
27026;DHT22;14565;48.626;8.978;2024-01-30T03:30:00;3.20;99.90
27026;DHT22;14565;48.626;8.978;2024-01-30T03:32:25;3.10;99.90
27026;DHT22;14565;48.626;8.978;2024-01-30T03:34:51;2.90;99.90
27026;DHT22;14565;48.626;8.978;2024-01-30T03:37:17;2.90;99.90
27026;DHT22;14565;48.626;8.978;2024-01-30T03:39:42;2.80;99.90
27026;DHT22;14565;48.626;8.978;2024-01-30T03:42:08;2.80;99.90
27026;DHT22;14565;48.626;8.978;2024-01-30T03:44:33;2.70;99.90
27026;DHT22;14565;48.626;8.978;2024-01-30T03:46:59;2.70;99.90
27026;DHT22;14565;48.626;8.978;2024-01-30T03:49:24;2.60;99.90
27026;DHT22;14565;48.626;8.978;2024-01-30T03:51:50;2.70;99.90
27026;DHT22;14565;48.626;8.978;2024-01-30T03:54:15;2.70;99.90
27026;DHT22;14565;48.626;8.978;2024-01-30T03:56:41;2.60;99.90
27026;DHT22;14565;48.626;8.978;2024-01-30T03:59:07;2.60;99.90
27026;DHT22;14565;48.626;8.978;2024-01-30T04:01:32;2.50;99.90
27026;DHT22;14565;48.626;8.978;2024-01-30T04:03:58;2.30;99.90
27026;DHT22;14565;48.626;8.978;2024-01-30T04:06:24;2.10;99.90
27026;DHT22;14565;48.626;8.978;2024-01-30T04:08:49;2.10;99.90
27026;DHT22;14565;48.626;8.978;2024-01-30T04:11:15;2.00;99.90
27026;DHT22;14565;48.626;8.978;2024-01-30T04:13:43;2.00;99.90
27026;DHT22;14565;48.626;8.978;2024-01-30T04:16:18;2.00;99.90
27026;DHT22;14565;48.626;8.978;2024-01-30T04:18:44;1.90;99.90
27026;DHT22;14565;48.626;8.978;2024-01-30T04:21:09;1.80;99.90
27026;DHT22;14565;48.626;8.978;2024-01-30T04:23:35;1.80;99.90
27026;DHT22;14565;48.626;8.978;2024-01-30T04:26:00;1.70;99.90
27026;DHT22;14565;48.626;8.978;2024-01-30T04:28:26;1.70;99.90
27026;DHT22;14565;48.626;8.978;2024-01-30T04:30:51;1.60;99.90
27026;DHT22;14565;48.626;8.978;2024-01-30T04:33:17;1.70;99.90
27026;DHT22;14565;48.626;8.978;2024-01-30T04:35:43;1.70;99.90
27026;DHT22;14565;48.626;8.978;2024-01-30T04:38:09;1.70;99.90
27026;DHT22;14565;48.626;8.978;2024-01-30T04:40:34;1.90;99.90
27026;DHT22;14565;48.626;8.978;2024-01-30T04:43:00;2.00;99.90
27026;DHT22;14565;48.626;8.978;2024-01-30T04:45:25;1.00;99.90
27026;DHT22;14565;48.626;8.978;2024-01-30T04:47:51;0.30;99.90
27026;DHT22;14565;48.626;8.978;2024-01-30T04:50:16;0.20;99.90
27026;DHT22;14565;48.626;8.978;2024-01-30T04:52:42;0.40;99.90
27026;DHT22;14565;48.626;8.978;2024-01-30T04:55:07;0.70;99.90
27026;DHT22;14565;48.626;8.978;2024-01-30T04:57:33;1.20;99.90
27026;DHT22;14565;48.626;8.978;2024-01-30T04:59:59;1.40;99.90
27026;DHT22;14565;48.626;8.978;2024-01-30T05:02:24;1.40;99.90
27026;DHT22;14565;48.626;8.978;2024-01-30T05:04:50;1.50;99.90
27026;DHT22;14565;48.626;8.978;2024-01-30T05:07:15;1.50;99.90
27026;DHT22;14565;48.626;8.978;2024-01-30T05:09:41;1.80;99.90
27026;DHT22;14565;48.626;8.978;2024-01-30T05:12:06;2.00;99.90
27026;DHT22;14565;48.626;8.978;2024-01-30T05:14:32;2.30;99.90
27026;DHT22;14565;48.626;8.978;2024-01-30T05:16:57;1.90;99.90
27026;DHT22;14565;48.626;8.978;2024-01-30T05:19:23;1.60;99.90
27026;DHT22;14565;48.626;8.978;2024-01-30T05:21:49;1.20;99.90
27026;DHT22;14565;48.626;8.978;2024-01-30T05:24:14;1.20;99.90
27026;DHT22;14565;48.626;8.978;2024-01-30T05:26:40;1.30;99.90
27026;DHT22;14565;48.626;8.978;2024-01-30T05:29:06;1.30;99.90
27026;DHT22;14565;48.626;8.978;2024-01-30T05:31:31;1.50;99.90
27026;DHT22;14565;48.626;8.978;2024-01-30T05:33:57;1.70;99.90
27026;DHT22;14565;48.626;8.978;2024-01-30T05:36:22;2.30;99.90
27026;DHT22;14565;48.626;8.978;2024-01-30T05:38:48;2.50;99.90
27026;DHT22;14565;48.626;8.978;2024-01-30T05:41:14;2.60;99.90
27026;DHT22;14565;48.626;8.978;2024-01-30T05:43:39;2.60;99.90
27026;DHT22;14565;48.626;8.978;2024-01-30T05:46:06;2.50;99.90
27026;DHT22;14565;48.626;8.978;2024-01-30T05:48:31;1.80;99.90
27026;DHT22;14565;48.626;8.978;2024-01-30T05:50:57;1.20;99.90
27026;DHT22;14565;48.626;8.978;2024-01-30T05:53:22;1.10;99.90
27026;DHT22;14565;48.626;8.978;2024-01-30T05:55:48;1.00;99.90
27026;DHT22;14565;48.626;8.978;2024-01-30T05:58:13;1.00;99.90
27026;DHT22;14565;48.626;8.978;2024-01-30T06:00:39;1.20;99.90
27026;DHT22;14565;48.626;8.978;2024-01-30T06:03:04;1.30;99.90
27026;DHT22;14565;48.626;8.978;2024-01-30T06:05:30;1.80;99.90
27026;DHT22;14565;48.626;8.978;2024-01-30T06:07:55;2.20;99.90
27026;DHT22;14565;48.626;8.978;2024-01-30T06:10:21;2.40;99.90
27026;DHT22;14565;48.626;8.978;2024-01-30T06:12:46;2.80;99.90
27026;DHT22;14565;48.626;8.978;2024-01-30T06:15:13;3.00;99.90
27026;DHT22;14565;48.626;8.978;2024-01-30T06:17:39;2.90;99.90
27026;DHT22;14565;48.626;8.978;2024-01-30T06:20:04;3.00;99.90
27026;DHT22;14565;48.626;8.978;2024-01-30T06:22:30;2.90;99.90
27026;DHT22;14565;48.626;8.978;2024-01-30T06:24:56;2.90;99.90
27026;DHT22;14565;48.626;8.978;2024-01-30T06:27:21;2.80;99.90
27026;DHT22;14565;48.626;8.978;2024-01-30T06:29:47;1.30;99.90
27026;DHT22;14565;48.626;8.978;2024-01-30T06:32:12;0.70;99.90
27026;DHT22;14565;48.626;8.978;2024-01-30T06:34:38;0.50;99.90
27026;DHT22;14565;48.626;8.978;2024-01-30T06:37:05;0.60;99.90
27026;DHT22;14565;48.626;8.978;2024-01-30T06:39:30;0.90;99.90
27026;DHT22;14565;48.626;8.978;2024-01-30T06:41:56;1.10;99.90
27026;DHT22;14565;48.626;8.978;2024-01-30T06:44:22;1.40;99.90
27026;DHT22;14565;48.626;8.978;2024-01-30T06:46:47;1.60;99.90
27026;DHT22;14565;48.626;8.978;2024-01-30T06:49:12;1.70;99.90
27026;DHT22;14565;48.626;8.978;2024-01-30T06:51:38;1.70;99.90
27026;DHT22;14565;48.626;8.978;2024-01-30T06:54:04;2.00;99.90
27026;DHT22;14565;48.626;8.978;2024-01-30T06:56:29;2.00;99.90
27026;DHT22;14565;48.626;8.978;2024-01-30T06:58:55;2.30;99.90
27026;DHT22;14565;48.626;8.978;2024-01-30T07:01:20;2.20;99.90
27026;DHT22;14565;48.626;8.978;2024-01-30T07:03:46;2.10;99.90
27026;DHT22;14565;48.626;8.978;2024-01-30T07:06:11;2.40;99.90
27026;DHT22;14565;48.626;8.978;2024-01-30T07:08:37;2.60;99.90
27026;DHT22;14565;48.626;8.978;2024-01-30T07:11:07;2.80;99.90
27026;DHT22;14565;48.626;8.978;2024-01-30T07:13:33;2.90;99.90
27026;DHT22;14565;48.626;8.978;2024-01-30T07:15:59;2.90;99.90
27026;DHT22;14565;48.626;8.978;2024-01-30T07:18:25;2.90;99.90
27026;DHT22;14565;48.626;8.978;2024-01-30T07:20:50;3.00;99.90
27026;DHT22;14565;48.626;8.978;2024-01-30T07:23:16;3.10;99.90
27026;DHT22;14565;48.626;8.978;2024-01-30T07:25:45;3.20;99.90
27026;DHT22;14565;48.626;8.978;2024-01-30T07:28:13;3.40;99.90
27026;DHT22;14565;48.626;8.978;2024-01-30T07:30:42;3.60;99.90
27026;DHT22;14565;48.626;8.978;2024-01-30T07:33:07;3.70;99.90
27026;DHT22;14565;48.626;8.978;2024-01-30T07:35:34;3.80;99.90
27026;DHT22;14565;48.626;8.978;2024-01-30T07:37:59;3.90;99.90
27026;DHT22;14565;48.626;8.978;2024-01-30T07:40:25;4.00;99.90
27026;DHT22;14565;48.626;8.978;2024-01-30T07:42:53;4.10;99.90
27026;DHT22;14565;48.626;8.978;2024-01-30T07:45:22;4.10;99.90
27026;DHT22;14565;48.626;8.978;2024-01-30T07:47:49;4.20;99.90
27026;DHT22;14565;48.626;8.978;2024-01-30T07:50:15;4.30;99.90
27026;DHT22;14565;48.626;8.978;2024-01-30T07:52:40;4.40;99.90
27026;DHT22;14565;48.626;8.978;2024-01-30T07:55:06;4.50;99.90
27026;DHT22;14565;48.626;8.978;2024-01-30T07:57:33;4.60;99.90
27026;DHT22;14565;48.626;8.978;2024-01-30T07:59:59;4.60;99.90
27026;DHT22;14565;48.626;8.978;2024-01-30T08:02:25;4.60;99.90
27026;DHT22;14565;48.626;8.978;2024-01-30T08:04:51;4.70;99.90
27026;DHT22;14565;48.626;8.978;2024-01-30T08:07:16;4.70;99.90
27026;DHT22;14565;48.626;8.978;2024-01-30T08:09:43;4.80;99.90
27026;DHT22;14565;48.626;8.978;2024-01-30T08:12:08;4.90;99.90
27026;DHT22;14565;48.626;8.978;2024-01-30T08:14:34;5.10;99.90
27026;DHT22;14565;48.626;8.978;2024-01-30T08:16:59;5.10;99.90
27026;DHT22;14565;48.626;8.978;2024-01-30T08:19:25;5.20;99.90
27026;DHT22;14565;48.626;8.978;2024-01-30T08:21:50;5.20;99.90
27026;DHT22;14565;48.626;8.978;2024-01-30T08:24:16;5.20;99.90
27026;DHT22;14565;48.626;8.978;2024-01-30T08:26:41;5.30;99.90
27026;DHT22;14565;48.626;8.978;2024-01-30T08:29:07;5.40;99.90
27026;DHT22;14565;48.626;8.978;2024-01-30T08:31:35;5.50;99.90
27026;DHT22;14565;48.626;8.978;2024-01-30T08:34:01;5.60;99.90
27026;DHT22;14565;48.626;8.978;2024-01-30T08:36:26;5.60;99.90
27026;DHT22;14565;48.626;8.978;2024-01-30T08:38:52;5.70;99.90
27026;DHT22;14565;48.626;8.978;2024-01-30T08:41:17;5.60;99.90
27026;DHT22;14565;48.626;8.978;2024-01-30T08:43:43;5.60;99.90
27026;DHT22;14565;48.626;8.978;2024-01-30T08:46:10;5.60;99.90
27026;DHT22;14565;48.626;8.978;2024-01-30T08:48:35;5.60;99.90
27026;DHT22;14565;48.626;8.978;2024-01-30T08:51:01;5.70;99.90
27026;DHT22;14565;48.626;8.978;2024-01-30T08:53:27;5.70;99.90
27026;DHT22;14565;48.626;8.978;2024-01-30T08:55:52;5.80;99.90
27026;DHT22;14565;48.626;8.978;2024-01-30T08:58:17;5.80;99.90
27026;DHT22;14565;48.626;8.978;2024-01-30T09:00:44;5.90;99.90
27026;DHT22;14565;48.626;8.978;2024-01-30T09:03:09;6.00;99.90
27026;DHT22;14565;48.626;8.978;2024-01-30T09:05:35;6.20;99.90
27026;DHT22;14565;48.626;8.978;2024-01-30T09:08:00;6.30;99.90
27026;DHT22;14565;48.626;8.978;2024-01-30T09:10:26;6.50;99.90
27026;DHT22;14565;48.626;8.978;2024-01-30T09:12:52;6.70;99.90
27026;DHT22;14565;48.626;8.978;2024-01-30T09:15:17;6.90;99.90
27026;DHT22;14565;48.626;8.978;2024-01-30T09:17:44;7.10;99.90
27026;DHT22;14565;48.626;8.978;2024-01-30T09:20:09;7.30;99.90
27026;DHT22;14565;48.626;8.978;2024-01-30T09:22:35;7.30;99.90
27026;DHT22;14565;48.626;8.978;2024-01-30T09:25:01;7.40;99.90
27026;DHT22;14565;48.626;8.978;2024-01-30T09:27:26;7.40;99.90
27026;DHT22;14565;48.626;8.978;2024-01-30T09:29:52;7.70;99.90
27026;DHT22;14565;48.626;8.978;2024-01-30T09:32:17;7.90;99.90
27026;DHT22;14565;48.626;8.978;2024-01-30T09:34:43;7.90;99.90
27026;DHT22;14565;48.626;8.978;2024-01-30T09:37:09;8.10;99.90
27026;DHT22;14565;48.626;8.978;2024-01-30T09:39:35;8.30;99.90
27026;DHT22;14565;48.626;8.978;2024-01-30T09:42:02;8.30;99.90
27026;DHT22;14565;48.626;8.978;2024-01-30T09:44:28;8.50;99.90
27026;DHT22;14565;48.626;8.978;2024-01-30T09:46:54;8.50;99.90
27026;DHT22;14565;48.626;8.978;2024-01-30T09:49:20;8.50;99.90
27026;DHT22;14565;48.626;8.978;2024-01-30T09:51:51;8.50;99.90
27026;DHT22;14565;48.626;8.978;2024-01-30T09:54:36;8.60;99.90
27026;DHT22;14565;48.626;8.978;2024-01-30T09:57:02;8.60;99.90
27026;DHT22;14565;48.626;8.978;2024-01-30T09:59:27;8.60;99.90
27026;DHT22;14565;48.626;8.978;2024-01-30T10:01:53;8.70;99.90
27026;DHT22;14565;48.626;8.978;2024-01-30T10:04:22;8.80;99.90
27026;DHT22;14565;48.626;8.978;2024-01-30T10:06:47;8.80;99.90
27026;DHT22;14565;48.626;8.978;2024-01-30T10:09:36;8.70;99.90
27026;DHT22;14565;48.626;8.978;2024-01-30T10:12:05;8.70;99.90
27026;DHT22;14565;48.626;8.978;2024-01-30T10:17:44;9.00;99.90
27026;DHT22;14565;48.626;8.978;2024-01-30T10:23:43;9.00;99.90
27026;DHT22;14565;48.626;8.978;2024-01-30T10:26:15;9.00;99.90
27026;DHT22;14565;48.626;8.978;2024-01-30T10:28:42;9.00;99.90
27026;DHT22;14565;48.626;8.978;2024-01-30T10:31:08;9.20;99.90
27026;DHT22;14565;48.626;8.978;2024-01-30T10:33:34;9.20;99.90
27026;DHT22;14565;48.626;8.978;2024-01-30T10:36:03;9.40;99.90
27026;DHT22;14565;48.626;8.978;2024-01-30T10:38:30;9.40;99.90
27026;DHT22;14565;48.626;8.978;2024-01-30T10:40:59;9.40;99.90
27026;DHT22;14565;48.626;8.978;2024-01-30T10:43:32;9.50;99.90
27026;DHT22;14565;48.626;8.978;2024-01-30T10:46:11;9.60;99.90
27026;DHT22;14565;48.626;8.978;2024-01-30T10:48:40;9.70;99.90
27026;DHT22;14565;48.626;8.978;2024-01-30T10:51:08;9.80;99.90
27026;DHT22;14565;48.626;8.978;2024-01-30T10:53:34;9.80;99.90
27026;DHT22;14565;48.626;8.978;2024-01-30T10:56:01;9.90;99.90
27026;DHT22;14565;48.626;8.978;2024-01-30T10:58:28;9.90;99.90
27026;DHT22;14565;48.626;8.978;2024-01-30T11:00:53;9.90;99.90
27026;DHT22;14565;48.626;8.978;2024-01-30T11:03:19;9.90;99.90
27026;DHT22;14565;48.626;8.978;2024-01-30T11:05:49;10.00;99.90
27026;DHT22;14565;48.626;8.978;2024-01-30T11:08:25;10.10;99.90
27026;DHT22;14565;48.626;8.978;2024-01-30T11:10:55;10.10;99.90
27026;DHT22;14565;48.626;8.978;2024-01-30T11:13:20;10.10;99.90
27026;DHT22;14565;48.626;8.978;2024-01-30T11:15:47;10.20;99.90
27026;DHT22;14565;48.626;8.978;2024-01-30T11:18:22;10.20;99.90
27026;DHT22;14565;48.626;8.978;2024-01-30T11:20:48;10.10;99.90
27026;DHT22;14565;48.626;8.978;2024-01-30T11:23:13;10.20;99.90
27026;DHT22;14565;48.626;8.978;2024-01-30T11:25:39;10.30;99.90
27026;DHT22;14565;48.626;8.978;2024-01-30T11:28:04;10.30;99.90
27026;DHT22;14565;48.626;8.978;2024-01-30T11:30:31;10.40;99.90
27026;DHT22;14565;48.626;8.978;2024-01-30T11:35:34;10.50;99.90
27026;DHT22;14565;48.626;8.978;2024-01-30T11:38:01;10.50;99.90
27026;DHT22;14565;48.626;8.978;2024-01-30T11:40:30;10.50;99.90
27026;DHT22;14565;48.626;8.978;2024-01-30T11:42:56;10.50;99.90
27026;DHT22;14565;48.626;8.978;2024-01-30T11:45:22;10.50;99.90
27026;DHT22;14565;48.626;8.978;2024-01-30T11:47:47;10.40;99.90
27026;DHT22;14565;48.626;8.978;2024-01-30T11:50:13;10.50;99.90
27026;DHT22;14565;48.626;8.978;2024-01-30T11:52:39;10.50;99.90
27026;DHT22;14565;48.626;8.978;2024-01-30T11:55:05;10.50;99.90
27026;DHT22;14565;48.626;8.978;2024-01-30T11:57:30;10.50;99.90
27026;DHT22;14565;48.626;8.978;2024-01-30T11:59:56;10.70;99.90
27026;DHT22;14565;48.626;8.978;2024-01-30T12:02:21;10.70;99.90
27026;DHT22;14565;48.626;8.978;2024-01-30T12:04:47;10.60;99.90
27026;DHT22;14565;48.626;8.978;2024-01-30T12:07:13;10.70;99.90
27026;DHT22;14565;48.626;8.978;2024-01-30T12:09:41;10.70;99.90
27026;DHT22;14565;48.626;8.978;2024-01-30T12:12:07;10.80;99.90
27026;DHT22;14565;48.626;8.978;2024-01-30T12:14:37;10.80;99.90
27026;DHT22;14565;48.626;8.978;2024-01-30T12:17:03;10.90;99.90
27026;DHT22;14565;48.626;8.978;2024-01-30T12:19:28;10.90;99.90
27026;DHT22;14565;48.626;8.978;2024-01-30T12:21:57;10.90;99.90
27026;DHT22;14565;48.626;8.978;2024-01-30T12:24:27;10.80;99.90
27026;DHT22;14565;48.626;8.978;2024-01-30T12:27:02;10.80;99.90
27026;DHT22;14565;48.626;8.978;2024-01-30T12:29:27;11.00;99.90
27026;DHT22;14565;48.626;8.978;2024-01-30T12:31:56;11.00;99.90
27026;DHT22;14565;48.626;8.978;2024-01-30T12:34:24;10.90;99.90
27026;DHT22;14565;48.626;8.978;2024-01-30T12:36:49;10.90;99.90
27026;DHT22;14565;48.626;8.978;2024-01-30T12:39:15;11.00;99.90
27026;DHT22;14565;48.626;8.978;2024-01-30T12:41:41;11.00;99.90
27026;DHT22;14565;48.626;8.978;2024-01-30T12:44:06;11.10;99.90
27026;DHT22;14565;48.626;8.978;2024-01-30T12:46:33;11.00;99.90
27026;DHT22;14565;48.626;8.978;2024-01-30T12:48:59;11.00;99.90
27026;DHT22;14565;48.626;8.978;2024-01-30T12:51:24;11.00;99.90
27026;DHT22;14565;48.626;8.978;2024-01-30T12:53:50;11.10;99.90
27026;DHT22;14565;48.626;8.978;2024-01-30T12:56:15;11.10;99.90
27026;DHT22;14565;48.626;8.978;2024-01-30T12:58:41;11.00;99.90
27026;DHT22;14565;48.626;8.978;2024-01-30T13:01:08;11.20;99.90
27026;DHT22;14565;48.626;8.978;2024-01-30T13:03:33;11.20;99.90
27026;DHT22;14565;48.626;8.978;2024-01-30T13:05:59;11.30;99.90
27026;DHT22;14565;48.626;8.978;2024-01-30T13:08:25;11.40;99.90
27026;DHT22;14565;48.626;8.978;2024-01-30T13:10:50;11.50;99.90
27026;DHT22;14565;48.626;8.978;2024-01-30T13:13:16;11.70;99.90
27026;DHT22;14565;48.626;8.978;2024-01-30T13:15:41;11.80;99.90
27026;DHT22;14565;48.626;8.978;2024-01-30T13:18:07;11.60;99.90
27026;DHT22;14565;48.626;8.978;2024-01-30T13:20:33;11.40;99.90
27026;DHT22;14565;48.626;8.978;2024-01-30T13:22:58;11.40;99.90
27026;DHT22;14565;48.626;8.978;2024-01-30T13:25:24;11.30;99.90
27026;DHT22;14565;48.626;8.978;2024-01-30T13:27:49;11.30;99.90
27026;DHT22;14565;48.626;8.978;2024-01-30T13:30:15;11.20;99.90
27026;DHT22;14565;48.626;8.978;2024-01-30T13:32:40;11.20;99.90
27026;DHT22;14565;48.626;8.978;2024-01-30T13:35:09;11.30;99.90
27026;DHT22;14565;48.626;8.978;2024-01-30T13:37:34;11.30;99.90
27026;DHT22;14565;48.626;8.978;2024-01-30T13:40:00;11.30;99.90
27026;DHT22;14565;48.626;8.978;2024-01-30T13:42:26;11.30;99.90
27026;DHT22;14565;48.626;8.978;2024-01-30T13:44:52;11.10;99.90
27026;DHT22;14565;48.626;8.978;2024-01-30T13:47:18;11.10;99.90
27026;DHT22;14565;48.626;8.978;2024-01-30T13:49:46;11.00;99.90
27026;DHT22;14565;48.626;8.978;2024-01-30T13:52:12;10.90;99.90
27026;DHT22;14565;48.626;8.978;2024-01-30T13:54:38;11.00;99.90
27026;DHT22;14565;48.626;8.978;2024-01-30T13:57:04;11.00;99.90
27026;DHT22;14565;48.626;8.978;2024-01-30T13:59:29;10.90;99.90
27026;DHT22;14565;48.626;8.978;2024-01-30T14:01:55;10.90;99.90
27026;DHT22;14565;48.626;8.978;2024-01-30T14:04:20;11.00;99.90
27026;DHT22;14565;48.626;8.978;2024-01-30T14:06:46;11.00;99.90
27026;DHT22;14565;48.626;8.978;2024-01-30T14:09:11;11.00;99.90
27026;DHT22;14565;48.626;8.978;2024-01-30T14:11:40;11.00;99.90
27026;DHT22;14565;48.626;8.978;2024-01-30T14:14:06;11.00;99.90
27026;DHT22;14565;48.626;8.978;2024-01-30T14:16:32;11.00;99.90
27026;DHT22;14565;48.626;8.978;2024-01-30T14:18:58;11.00;99.90
27026;DHT22;14565;48.626;8.978;2024-01-30T14:21:23;11.00;99.90
27026;DHT22;14565;48.626;8.978;2024-01-30T14:23:49;11.10;99.90
27026;DHT22;14565;48.626;8.978;2024-01-30T14:26:15;11.10;99.90
27026;DHT22;14565;48.626;8.978;2024-01-30T14:28:40;11.10;99.90
27026;DHT22;14565;48.626;8.978;2024-01-30T14:31:06;11.00;99.90
27026;DHT22;14565;48.626;8.978;2024-01-30T14:33:31;11.00;99.90
27026;DHT22;14565;48.626;8.978;2024-01-30T14:35:57;10.90;99.90
27026;DHT22;14565;48.626;8.978;2024-01-30T14:38:22;10.90;99.90
27026;DHT22;14565;48.626;8.978;2024-01-30T14:40:50;11.00;99.90
27026;DHT22;14565;48.626;8.978;2024-01-30T14:43:16;11.00;99.90
27026;DHT22;14565;48.626;8.978;2024-01-30T14:45:41;10.90;99.90
27026;DHT22;14565;48.626;8.978;2024-01-30T14:48:07;10.90;99.90
27026;DHT22;14565;48.626;8.978;2024-01-30T14:50:34;10.70;99.90
27026;DHT22;14565;48.626;8.978;2024-01-30T14:52:59;10.80;99.90
27026;DHT22;14565;48.626;8.978;2024-01-30T14:55:25;10.70;99.90
27026;DHT22;14565;48.626;8.978;2024-01-30T14:57:50;10.70;99.90
27026;DHT22;14565;48.626;8.978;2024-01-30T15:00:16;10.70;99.90
27026;DHT22;14565;48.626;8.978;2024-01-30T15:02:42;10.70;99.90
27026;DHT22;14565;48.626;8.978;2024-01-30T15:05:07;10.60;99.90
27026;DHT22;14565;48.626;8.978;2024-01-30T15:07:36;10.60;99.90
27026;DHT22;14565;48.626;8.978;2024-01-30T15:10:01;10.50;99.90
27026;DHT22;14565;48.626;8.978;2024-01-30T15:12:28;10.40;99.90
27026;DHT22;14565;48.626;8.978;2024-01-30T15:14:54;10.30;99.90
27026;DHT22;14565;48.626;8.978;2024-01-30T15:17:19;10.30;99.90
27026;DHT22;14565;48.626;8.978;2024-01-30T15:19:48;10.20;99.90
27026;DHT22;14565;48.626;8.978;2024-01-30T15:22:14;10.20;99.90
27026;DHT22;14565;48.626;8.978;2024-01-30T15:24:39;10.20;99.90
27026;DHT22;14565;48.626;8.978;2024-01-30T15:27:05;10.10;99.90
27026;DHT22;14565;48.626;8.978;2024-01-30T15:29:31;10.10;99.90
27026;DHT22;14565;48.626;8.978;2024-01-30T15:31:56;10.10;99.90
27026;DHT22;14565;48.626;8.978;2024-01-30T15:34:22;10.10;99.90
27026;DHT22;14565;48.626;8.978;2024-01-30T15:36:47;10.00;99.90
27026;DHT22;14565;48.626;8.978;2024-01-30T15:39:13;10.10;99.90
27026;DHT22;14565;48.626;8.978;2024-01-30T15:41:40;10.00;99.90
27026;DHT22;14565;48.626;8.978;2024-01-30T15:44:06;10.00;99.90